EFPOEFTU

Guest
Details From EFPO - Pori
To EFTU - Turku
Flight Number -
Tags generated
Created
Modified
Stats Distance 59 nm / 108 km
Max Altitude 7,400 ft / 2,256 m
Waypoints 5
Social Downloads 1
Likes 0
Share VATSIM

Download

Looking for another format? Having issues loading an existing format? Contact us
Advertisement - Login to hide

Notes

Basic altitude profile: - Ascent Rate: 2500ft/min - Ascent Speed: 250kts - Cruise Altitude: 2000ft - Cruise Speed: 420kts - Descent Rate: 1500ft/min - Descent Speed: 250kts Options: - Use NATs: yes - Use PACOTS: yes - Use low airways: yes - Use high airways: no

Route

EFPO TUSKU Y80 RUS EFTU

ID Type Via Altitude Latitude Longitude Leg Dist Tot Dist Heading (true) Name
O EFPO APT - 0 ft / 0 m 61.46117˚ 21.79925˚ - 0 nm - Pori
TUSKU FIX - 7,400 ft / 2,256 m 61.12472˚ 21.96417˚ 20 nm 20 nm 167° / 167° -
NIRPU FIX Y80 (AWY-LO) 6,500 ft / 1,981 m 60.77417˚ 22.13361˚ 21 nm 42 nm 167° / 167° -
RUS VOR Y80 (AWY-LO) 6,500 ft / 1,981 m 60.51519˚ 22.25653˚ 15 nm 58 nm 167° / 167° RUSKO VOR-DME
O EFTU APT - 0 ft / 0 m 60.51412˚ 22.26281˚ 0 nm 58 nm 109° / 109° Turku

Altitude Profile

Advertisement - Login to hide

EFPO

Details ICAO EFPO (POR)
Name Pori
Region Finland
Timezone Europe/Helsinki (UTC+2.0)
Stats Elevation 44 ft / 13 m (AMSL)
Location 61.461174° 21.799255°
Runways 2
Magnetic Variation 8.036° E

METAR

EFPO 180650Z AUTO 20006KT 170V240 9999 -UP OVC010/// 01/M01 Q1014

Decode

TAF

Not found

Departure Runways

ID Width Length Bearing (true) Bearing (mag) Surface Threshold Offset Overrun Length
12 197 ft / 60 m 7,692 ft / 2,345 m 125.81° 117.77° Asphalt 312 ft / 95 m 0 ft / 0 m
17 98 ft / 30 m 2,623 ft / 799 m 173.89° 165.85° Asphalt 400 ft / 122 m 0 ft / 0 m
30 197 ft / 60 m 7,692 ft / 2,345 m 305.84° 297.80° Asphalt 1,132 ft / 345 m 0 ft / 0 m
35 98 ft / 30 m 2,623 ft / 799 m 353.90° 345.86° Asphalt 400 ft / 122 m 0 ft / 0 m

EFTU

Details ICAO EFTU (TKU)
Name Turku
Region Finland
Timezone Europe/Helsinki (UTC+2.0)
Stats Elevation 161 ft / 49 m (AMSL)
Location 60.514115° 22.262812°
Runways 1
Magnetic Variation 7.976° E

METAR

EFTU 180650Z AUTO 21004KT 160V250 9999 FEW030 00/M02 Q1016

Decode

TAF

TAF EFTU 180524Z 1806/1906 18003KT 9999 FEW035 BECMG 1806/1808 23013KT BECMG 1812/1814 BKN012 TEMPO 1812/1819 7000 RA BKN008 TEMPO 1819/1906 BKN008

Decode

Destination Runways

ID Width Length Bearing (true) Bearing (mag) Surface Threshold Offset Overrun Length
08 197 ft / 60 m 8,175 ft / 2,492 m 84.82° 76.84° Asphalt 0 ft / 0 m 0 ft / 0 m
26 197 ft / 60 m 8,175 ft / 2,492 m 264.86° 256.88° Asphalt 0 ft / 0 m 0 ft / 0 m

Approach Navaids

Runway Type Ident Frequency Range Bearing (true) Bearing (mag) Slope Elevation
26 Localiser TU 109.50 MHz 18 nm / 33 km 264.82° 256.84° - 161 ft / 49 m (AMSL)
26 Glidescope TU 109.50 MHz 10 nm / 19 km 264.84° 256.87° 3.00° 161 ft / 49 m (AMSL)
26 DME TU 109.50 MHz 18 nm / 33 km - - - 200 ft / 61 m (AMSL)

Popular Alternatives